Bookmark and Share
Track history (hours):
 

Mehtap Bayraktar

Last reported at 2014-Apr-18 14:21 UTC. Time now 2014-Apr-23 15:41 UTC.
Position N 36°48' E 003°05'.

Length 114 m; draft 5.2 m.

Type: Cargo ship. MMSI: 271000578.

NotesDate/timePositionNaut miles runAvg speedWind from/ knotsBaromVisibWave heightAir tempDewpointWater temp
2014-Apr-18 14:21N 36°48' E 003°05'810.7
2014-Apr-18 13:33N 36°55' E 002°59'1111.4
2014-Apr-18 12:33N 37°02' E 002°48'1111.2
2014-Apr-18 11:33N 37°11' E 002°39'1211.8
2014-Apr-18 10:32N 37°20' E 002°29'1111.8
2014-Apr-18 09:33N 37°28' E 002°19'1211.5
2014-Apr-18 08:33N 37°37' E 002°10'1211.5
2014-Apr-18 07:33N 37°46' E 002°00'1211.7
2014-Apr-18 06:33N 37°54' E 001°50'2812.1
2014-Apr-18 04:17N 38°15' E 001°28'1011.8
2014-Apr-18 03:28N 38°23' E 001°20'1212.5
2014-Apr-18 02:33N 38°32' E 001°11'100 3.3
2014-Apr-16 20:19N 40°03' E 000°17'1412.4
2014-Apr-16 19:12N 40°10' E 000°32'812.1
2014-Apr-16 18:33N 40°13' E 000°41'1812.7
2014-Apr-16 17:09N 40°23' E 001°01'812.9
2014-Apr-16 16:31N 40°27' E 001°10'1212.2
2014-Apr-16 15:33N 40°35' E 001°22'2613.1
2014-Apr-16 13:33N 40°55' E 001°45'1313.2
2014-Apr-16 12:33N 41°05' E 001°56'1211.9
2014-Apr-16 11:33N 41°13' E 002°07'8 6.9
2014-Apr-16 10:25N 41°21' E 002°10'0 0.0
2014-Apr-16 09:31N 41°21' E 002°10'0 0.0
2014-Apr-16 07:31N 41°21' E 002°10'0 0.0
2014-Apr-16 06:13N 41°21' E 002°10'0 0.0
2014-Apr-16 05:25N 41°21' E 002°10'0 0.0
2014-Apr-16 04:31N 41°21' E 002°10'0 0.0
2014-Apr-16 03:31N 41°21' E 002°10'0 0.0
2014-Apr-16 02:19N 41°21' E 002°10'0 0.0
2014-Apr-16 01:25N 41°21' E 002°10'0 0.0
2014-Apr-16 00:25N 41°21' E 002°10'0 0.0
2014-Apr-15 23:19N 41°21' E 002°10'2 2.3
2014-Apr-15 22:27N 41°19' E 002°10'4 3.8
2014-Apr-15 21:31N 41°17' E 002°14'5 5.1
2014-Apr-15 20:33N 41°12' E 002°17'1211.7
2014-Apr-15 19:33N 41°03' E 002°26'1212.3
2014-Apr-15 18:33N 40°53' E 002°36'1312.8
2014-Apr-15 17:32N 40°43' E 002°46'1212.6
2014-Apr-15 16:33N 40°33' E 002°56'1212.4
2014-Apr-15 15:33N 40°23' E 003°06'37 9.2
2014-Apr-15 11:34N 39°54' E 003°35'6312.6
2014-Apr-15 06:33N 38°56' E 004°07'  
2014-Apr-12 22:13N 37°54' E 002°23'4810.4
2014-Apr-12 17:33N 38°15' E 001°27'2411.8
2014-Apr-12 15:32N 38°34' E 001°10'23 0.7
2014-Apr-11 07:12N 38°54' E 000°55'1316.1
2014-Apr-11 06:25N 38°44' E 001°03'1213.4
2014-Apr-11 05:33N 38°34' E 001°11'1414.0
2014-Apr-11 04:33N 38°22' E 001°21'1414.5
2014-Apr-11 03:33N 38°11' E 001°33'1414.1
2014-Apr-11 02:33N 38°00' E 001°45'1913.8
2014-Apr-11 01:11N 37°46' E 002°00'1014.0
2014-Apr-11 00:29N 37°39' E 002°08'1514.5
2014-Apr-10 23:29N 37°28' E 002°21'1313.9
2014-Apr-10 22:33N 37°19' E 002°32'1414.2
2014-Apr-10 21:33N 37°08' E 002°44'1414.4
2014-Apr-10 20:33N 36°57' E 002°56'  

Dump ship's entire track history

sailing weather and tide predictions

Mehtap Bayraktar — TCPB — position and weather